Time;durP1;ratioP1;P1;durP2;ratioP2;P2;SDS_P1;SDS_P2;PMS_P1;PMS_P2;Temp;Humidity;BMP_temperature;BMP_pressure;BME280_temperature;BME280_humidity;BME280_pressure;Samples;Min_cycle;Max_cycle;Signal;HPM_P1;HPM_P2
2021/11/19 00:01:57;;;;;;;69.83;36.13;;;;;;;-0.61;100.00;100374.53;1748987;82;21017;-73
2021/11/19 00:04:25;;;;;;;65.23;32.83;;;;;;;-0.55;100.00;100378.63;1724664;82;21065;-73
2021/11/19 00:06:53;;;;;;;70.70;34.67;;;;;;;-0.51;100.00;100364.20;1716425;82;21018;-72
2021/11/19 00:09:19;;;;;;;62.70;32.17;;;;;;;-0.46;100.00;100361.67;1676868;83;21044;-72
2021/11/19 00:11:48;;;;;;;61.13;33.10;;;;;;;-0.42;100.00;100352.56;1711136;83;21058;-72
2021/11/19 00:14:16;;;;;;;70.57;35.60;;;;;;;-0.40;100.00;100344.02;1708791;84;21041;-72
2021/11/19 00:16:46;;;;;;;58.80;33.07;;;;;;;-0.35;100.00;100353.05;1740622;81;21029;-72
2021/11/19 00:19:14;;;;;;;60.33;32.63;;;;;;;-0.31;100.00;100347.06;1740833;81;21025;-71
2021/11/19 00:21:42;;;;;;;64.50;33.43;;;;;;;-0.26;100.00;100342.33;1740316;81;21542;-72
2021/11/19 00:24:09;;;;;;;61.67;31.77;;;;;;;-0.23;100.00;100349.64;1740670;81;21569;-73
2021/11/19 00:26:36;;;;;;;55.87;28.43;;;;;;;-0.20;100.00;100339.28;1716039;83;21038;-72
2021/11/19 00:29:05;;;;;;;56.67;30.30;;;;;;;-0.17;100.00;100332.94;1739996;81;21022;-72
2021/11/19 00:31:33;;;;;;;62.63;31.87;;;;;;;-0.14;100.00;100331.39;1715818;84;21066;-71
2021/11/19 00:34:00;;;;;;;56.53;30.30;;;;;;;-0.13;100.00;100334.45;1686585;84;20990;-71
2021/11/19 00:36:29;;;;;;;57.97;30.50;;;;;;;-0.13;100.00;100331.30;1740982;81;21109;-72
2021/11/19 00:38:58;;;;;;;54.50;29.07;;;;;;;-0.12;100.00;100330.36;1716027;84;21526;-70
2021/11/19 00:41:25;;;;;;;56.80;32.80;;;;;;;-0.10;100.00;100319.64;1716042;84;21006;-73
2021/11/19 00:43:52;;;;;;;55.97;30.83;;;;;;;-0.08;100.00;100329.70;1716098;83;21545;-72
2021/11/19 00:46:19;;;;;;;54.77;29.73;;;;;;;-0.07;100.00;100330.06;1715989;83;21037;-73
2021/11/19 00:48:46;;;;;;;54.13;30.13;;;;;;;-0.06;100.00;100321.99;1716040;84;21006;-72
2021/11/19 00:51:30;;;;;;;55.40;29.17;;;;;;;-0.06;100.00;100311.36;1716153;84;21014;-73
2021/11/19 00:53:58;;;;;;;47.77;28.50;;;;;;;-0.05;100.00;100306.44;1709352;84;21048;-72
2021/11/19 00:56:29;;;;;;;53.13;28.47;;;;;;;-0.03;100.00;100304.53;1692379;84;21001;-72
2021/11/19 00:58:56;;;;;;;52.77;28.40;;;;;;;-0.02;100.00;100295.61;1701697;84;21045;-73
2021/11/19 01:01:31;;;;;;;52.50;29.00;;;;;;;-0.03;100.00;100296.55;1701820;84;21029;-72
2021/11/19 01:03:59;;;;;;;54.03;29.07;;;;;;;-0.03;100.00;100285.08;1677695;85;21052;-72
2021/11/19 01:06:27;;;;;;;51.37;27.57;;;;;;;-0.01;100.00;100295.97;1682253;85;21018;-73
2021/11/19 01:08:55;;;;;;;51.83;28.83;;;;;;;-0.02;100.00;100298.27;1676976;85;21088;-73
2021/11/19 01:11:23;;;;;;;59.40;31.37;;;;;;;-0.04;100.00;100297.97;1672139;85;21029;-72
2021/11/19 01:13:53;;;;;;;69.23;34.27;;;;;;;-0.03;100.00;100294.37;1666201;86;21569;-72
2021/11/19 01:16:28;;;;;;;63.90;35.27;;;;;;;-0.06;100.00;100290.09;1653513;87;21038;-72
2021/11/19 01:19:01;;;;;;;62.70;32.23;;;;;;;-0.08;100.00;100295.14;1653592;87;21054;-72
2021/11/19 01:21:33;;;;;;;58.65;31.62;;;;;;;-0.12;100.00;100293.64;1653544;87;21065;-72
2021/11/19 01:24:00;;;;;;;61.47;31.93;;;;;;;-0.12;100.00;100305.59;1653640;87;21115;-73
2021/11/19 01:26:31;;;;;;;58.33;32.63;;;;;;;-0.12;100.00;100313.09;1653655;87;21094;-71
2021/11/19 01:29:02;;;;;;;55.20;29.53;;;;;;;-0.10;100.00;100305.02;1653498;87;21029;-73
2021/11/19 01:31:34;;;;;;;56.13;30.33;;;;;;;-0.08;100.00;100291.16;1653406;87;21018;-72
2021/11/19 01:34:02;;;;;;;;;;;;;;;-0.08;100.00;100297.80;1655428;87;21037;-73
2021/11/19 01:36:31;;;;;;;53.23;29.03;;;;;;;-0.12;100.00;100300.28;1648827;87;20134;-72
2021/11/19 01:39:08;;;;;;;55.07;31.43;;;;;;;-0.15;100.00;100292.49;1653517;87;21086;-72
2021/11/19 01:41:57;;;;;;;55.35;30.80;;;;;;;-0.15;100.00;100289.34;1653586;87;21562;-71
2021/11/19 01:44:28;;;;;;;65.83;32.97;;;;;;;-0.13;100.00;100288.77;1611878;89;21078;-72
2021/11/19 01:46:57;;;;;;;59.57;30.57;;;;;;;-0.11;100.00;100291.34;1561626;92;21635;-73
2021/11/19 01:49:26;;;;;;;52.47;29.47;;;;;;;-0.09;100.00;100283.66;1543283;91;21568;-72
2021/11/19 01:51:58;;;;;;;53.03;28.50;;;;;;;-0.07;100.00;100274.23;1563130;91;21032;-72
2021/11/19 01:54:40;;;;;;;52.95;29.50;;;;;;;-0.11;100.00;100276.23;1553407;92;21071;-72
2021/11/19 01:57:24;;;;;;;57.10;30.53;;;;;;;-0.13;100.00;100280.80;1508943;93;21055;-72
2021/11/19 01:59:58;;;;;;;64.67;32.53;;;;;;;-0.12;100.00;100279.86;1560687;90;21077;-73
2021/11/19 02:02:34;;;;;;;58.47;31.07;;;;;;;-0.10;100.00;100274.45;1588164;90;21129;-73
2021/11/19 02:05:09;;;;;;;55.67;30.57;;;;;;;-0.08;100.00;100273.88;1550440;92;21153;-72
2021/11/19 02:07:45;;;;;;;55.90;29.73;;;;;;;-0.05;100.00;100275.02;1601302;90;21091;-72
2021/11/19 02:10:47;;;;;;;60.50;32.17;;;;;;;0.00;100.00;100268.94;1543796;93;21136;-72
2021/11/19 02:13:59;;;;;;;57.83;31.93;;;;;;;0.04;100.00;100258.47;1517719;94;21185;-72
2021/11/19 02:16:32;;;;;;;76.00;36.10;;;;;;;0.07;100.00;100260.06;1524637;94;21125;-73
2021/11/19 02:19:17;;;;;;;73.10;36.80;;;;;;;-0.05;100.00;100264.38;1497505;96;21177;-73
2021/11/19 02:21:52;;;;;;;62.97;33.63;;;;;;;-0.10;100.00;100265.14;1516088;94;21083;-73
2021/11/19 02:24:25;;;;;;;56.97;30.60;;;;;;;-0.10;100.00;100267.81;1517929;94;21114;-73
2021/11/19 02:27:07;;;;;;;60.00;33.07;;;;;;;-0.10;100.00;100251.86;1497768;96;21079;-73
2021/11/19 02:29:38;;;;;;;56.57;31.40;;;;;;;-0.07;100.00;100254.30;1446223;99;21105;-72
2021/11/19 02:32:10;;;;;;;63.70;32.90;;;;;;;-0.07;100.00;100248.98;1446486;99;21141;-72
2021/11/19 02:34:39;;;;;;;66.07;33.83;;;;;;;-0.11;100.00;100255.45;1405936;102;21186;-73
2021/11/19 02:37:37;;;;;;;63.70;32.93;;;;;;;-0.16;100.00;100264.19;1389267;102;21174;-72
2021/11/19 02:40:12;;;;;;;59.00;29.63;;;;;;;-0.20;100.00;100257.73;1407592;100;21213;-71
2021/11/19 02:42:48;;;;;;;52.50;30.50;;;;;;;-0.21;100.00;100252.54;1428202;100;21172;-72
2021/11/19 02:45:23;;;;;;;59.20;29.73;;;;;;;-0.24;100.00;100254.90;1417787;101;21155;-72
2021/11/19 02:47:52;;;;;;;49.90;27.67;;;;;;;-0.23;100.00;100251.76;1417776;101;21199;-73
2021/11/19 02:50:20;;;;;;;54.13;27.90;;;;;;;-0.20;100.00;100246.25;1420834;99;21149;-71
2021/11/19 02:52:50;;;;;;;49.57;27.70;;;;;;;-0.19;100.00;100257.28;1430808;99;21175;-73
2021/11/19 02:55:22;;;;;;;48.30;26.47;;;;;;;-0.21;100.00;100263.17;1410440;100;21075;-72
2021/11/19 02:57:50;;;;;;;46.42;26.10;;;;;;;-0.23;100.00;100244.66;1421223;100;21131;-73
2021/11/19 03:00:25;;;;;;;47.93;26.33;;;;;;;-0.26;100.00;100236.87;1420952;101;21120;-72
2021/11/19 03:02:53;;;;;;;49.60;25.73;;;;;;;-0.29;100.00;100238.88;1442674;98;21607;-73
2021/11/19 03:05:22;;;;;;;94.20;44.23;;;;;;;-0.33;100.00;100232.05;1449942;98;21572;-72
2021/11/19 03:07:50;;;;;;;101.20;44.87;;;;;;;-0.37;100.00;100231.39;1487551;96;21064;-73
2021/11/19 03:10:23;;;;;;;68.33;34.90;;;;;;;-0.39;100.00;100231.94;1467813;97;21129;-72
2021/11/19 03:12:51;;;;;;;61.30;30.23;;;;;;;-0.40;100.00;100229.77;1435062;99;21061;-72
2021/11/19 03:15:23;;;;;;;53.87;28.80;;;;;;;-0.38;100.00;100236.31;1441534;99;21198;-72
2021/11/19 03:17:50;;;;;;;49.87;26.73;;;;;;;-0.37;100.00;100227.41;1455966;99;21150;-73
2021/11/19 03:20:18;;;;;;;43.87;25.20;;;;;;;-0.36;100.00;100234.41;1455914;99;21555;-72
2021/11/19 03:22:45;;;;;;;47.07;26.50;;;;;;;-0.36;100.00;100227.77;1455883;99;21134;-72
2021/11/19 03:25:15;;;;;;;46.53;24.93;;;;;;;-0.38;100.00;100233.66;1455965;99;21162;-72
2021/11/19 03:27:43;;;;;;;46.23;26.23;;;;;;;-0.38;100.00;100229.67;1455925;99;21073;-73
2021/11/19 03:30:14;;;;;;;44.03;25.83;;;;;;;-0.37;100.00;100231.39;1453193;99;21649;-73
2021/11/19 03:32:43;;;;;;;45.23;24.93;;;;;;;-0.37;100.00;100226.08;1584472;88;21049;-72
2021/11/19 03:35:14;;;;;;;47.37;25.83;;;;;;;-0.36;100.00;100225.11;1631301;88;21100;-72
2021/11/19 03:37:43;;;;;;;43.03;25.27;;;;;;;-0.34;100.00;100226.34;1631272;88;21141;-72
2021/11/19 03:40:12;;;;;;;41.93;23.30;;;;;;;-0.32;100.00;100216.47;1621353;88;21034;-73
2021/11/19 03:42:39;;;;;;;43.47;22.83;;;;;;;-0.30;100.00;100210.58;1635804;88;21526;-73
2021/11/19 03:45:10;;;;;;;45.23;24.50;;;;;;;-0.28;100.00;100214.86;1635872;88;21053;-72
2021/11/19 03:47:41;;;;;;;45.30;23.07;;;;;;;-0.29;100.00;100218.45;1635757;88;21621;-72
2021/11/19 03:50:28;;;;;;;45.13;24.23;;;;;;;-0.36;100.00;100222.45;1635734;88;21034;-72
2021/11/19 03:52:55;;;;;;;44.23;23.60;;;;;;;-0.44;100.00;100221.62;1635942;88;21061;-72
2021/11/19 03:55:27;;;;;;;43.90;23.83;;;;;;;-0.50;100.00;100217.16;1706191;83;21656;-73
2021/11/19 03:57:54;;;;;;;44.50;24.13;;;;;;;-0.52;100.00;100213.75;1717647;83;21030;-73
2021/11/19 04:00:30;;;;;;;45.67;23.53;;;;;;;-0.52;100.00;100213.27;1746952;82;21573;-73
2021/11/19 04:03:00;;;;;;;46.20;24.67;;;;;;;-0.55;100.00;100209.46;1746974;82;21054;-73
2021/11/19 04:05:30;;;;;;;48.03;25.53;;;;;;;-0.60;100.00;100207.59;1709081;82;21071;-72
2021/11/19 04:07:57;;;;;;;44.17;24.10;;;;;;;-0.66;100.00;100212.79;1690524;85;21538;-73
2021/11/19 04:10:27;;;;;;;46.03;24.73;;;;;;;-0.63;100.00;100211.77;1691380;83;21014;-73
2021/11/19 04:12:54;;;;;;;46.43;25.17;;;;;;;-0.65;100.00;100214.99;1722627;83;21056;-71
2021/11/19 04:15:30;;;;;;;47.13;25.33;;;;;;;-0.68;100.00;100212.03;1724074;82;21108;-73
2021/11/19 04:17:58;;;;;;;47.10;26.37;;;;;;;-0.73;100.00;100220.76;1725758;82;21018;-73
2021/11/19 04:20:25;;;;;;;49.93;26.00;;;;;;;-0.77;100.00;100217.92;1725823;83;21068;-72
2021/11/19 04:22:52;;;;;;;45.30;25.10;;;;;;;-0.75;100.00;100223.14;1753106;81;21535;-73
2021/11/19 04:25:21;;;;;;;41.13;22.70;;;;;;;-0.70;100.00;100223.23;1753363;81;21525;-73
2021/11/19 04:27:50;;;;;;;44.40;23.47;;;;;;;-0.68;100.00;100224.47;1725800;83;21498;-73
2021/11/19 04:30:30;;;;;;;42.03;22.62;;;;;;;-0.69;100.00;100222.75;1716946;83;21057;-73
2021/11/19 04:32:59;;;;;;;46.70;23.40;;;;;;;-0.72;100.00;100216.33;1713436;83;21010;-72
2021/11/19 04:35:27;;;;;;;46.43;25.50;;;;;;;-0.71;100.00;100212.70;1716624;83;21045;-73
2021/11/19 04:37:57;;;;;;;46.77;26.83;;;;;;;-0.68;100.00;100216.50;1716564;83;21530;-72
2021/11/19 04:40:23;;;;;;;46.13;23.43;;;;;;;-0.64;100.00;100214.03;1716729;83;20993;-72
2021/11/19 04:42:51;;;;;;;43.33;24.63;;;;;;;-0.58;100.00;100218.97;1714331;83;21063;-72
2021/11/19 04:45:25;;;;;;;49.47;28.00;;;;;;;-0.52;100.00;100217.25;1665107;86;21073;-73
2021/11/19 04:47:52;;;;;;;50.53;27.13;;;;;;;-0.51;100.00;100222.95;1670418;86;21085;-73
2021/11/19 04:50:21;;;;;;;54.73;31.90;;;;;;;-0.49;100.00;100226.36;1663433;86;21573;-73
2021/11/19 04:52:49;;;;;;;104.70;63.53;;;;;;;-0.44;100.00;100214.98;1670342;86;21013;-73
2021/11/19 04:55:16;;;;;;;97.97;55.93;;;;;;;-0.43;100.00;100225.12;1663328;86;21046;-74
2021/11/19 04:57:44;;;;;;;72.47;40.40;;;;;;;-0.41;100.00;100224.55;1670494;86;21041;-73
2021/11/19 05:00:17;;;;;;;60.33;33.40;;;;;;;-0.37;100.00;100216.78;1663327;86;21033;-72
2021/11/19 05:02:46;;;;;;;55.67;31.23;;;;;;;-0.34;100.00;100213.06;1659803;86;21129;-73
2021/11/19 05:05:25;;;;;;;48.27;27.97;;;;;;;-0.31;100.00;100213.72;1632669;87;21586;-73
2021/11/19 05:07:54;;;;;;;47.63;25.57;;;;;;;-0.29;100.00;100214.47;1632334;87;21098;-73
2021/11/19 05:10:21;;;;;;;46.57;26.30;;;;;;;-0.27;100.00;100226.34;1633412;88;21067;-73
2021/11/19 05:12:51;;;;;;;43.47;25.37;;;;;;;-0.25;100.00;100226.63;1663232;85;21037;-73
2021/11/19 05:15:19;;;;;;;46.97;26.60;;;;;;;-0.25;100.00;100227.97;1697222;84;21101;-73
2021/11/19 05:17:46;;;;;;;46.27;25.97;;;;;;;-0.25;100.00;100232.41;1687987;85;21057;-73
2021/11/19 05:20:15;;;;;;;49.57;27.97;;;;;;;-0.23;100.00;100223.85;1688190;85;21042;-73
2021/11/19 05:22:42;;;;;;;48.97;29.57;;;;;;;-0.20;100.00;100223.17;1688036;85;21198;-73
2021/11/19 05:25:12;;;;;;;44.73;24.50;;;;;;;-0.16;100.00;100218.55;1688201;85;21571;-73
2021/11/19 05:27:40;;;;;;;43.73;24.33;;;;;;;-0.14;100.00;100216.64;1688320;85;21174;-72
2021/11/19 05:30:10;;;;;;;44.57;25.50;;;;;;;-0.13;100.00;100215.67;1688139;85;21062;-73
2021/11/19 05:32:42;;;;;;;51.43;27.10;;;;;;;-0.12;100.00;100204.59;1687804;85;21057;-73
2021/11/19 05:35:09;;;;;;;44.27;22.90;;;;;;;-0.07;100.00;100209.98;1688152;85;21542;-73
2021/11/19 05:37:37;;;;;;;43.10;22.40;;;;;;;-0.02;100.00;100203.02;1688029;85;21045;-73
2021/11/19 05:40:07;;;;;;;37.73;21.63;;;;;;;0.01;100.00;100200.17;1687912;85;21018;-73
2021/11/19 05:42:34;;;;;;;39.17;20.77;;;;;;;0.02;100.00;100207.20;1688094;85;21582;-72
2021/11/19 05:45:05;;;;;;;37.10;21.27;;;;;;;0.02;100.00;100195.24;1687893;85;21053;-73
2021/11/19 05:47:34;;;;;;;43.63;22.93;;;;;;;0.04;100.00;100181.85;1620179;88;21065;-74
2021/11/19 05:50:05;;;;;;;41.67;22.87;;;;;;;0.05;100.00;100191.03;1616834;88;21145;-73
2021/11/19 05:52:33;;;;;;;44.43;23.57;;;;;;;0.02;100.00;100182.41;1597658;88;21525;-73
2021/11/19 05:55:02;;;;;;;42.07;21.90;;;;;;;0.01;100.00;100186.88;1597823;88;21061;-73
2021/11/19 05:57:29;;;;;;;40.30;21.70;;;;;;;0.03;100.00;100191.61;1597492;88;21049;-73
2021/11/19 05:59:57;;;;;;;42.80;25.53;;;;;;;0.03;100.00;100191.61;1619933;89;21105;-73
2021/11/19 06:02:26;;;;;;;41.53;22.60;;;;;;;0.06;100.00;100198.06;1554597;92;21080;-74
2021/11/19 06:04:58;;;;;;;48.40;27.13;;;;;;;0.04;100.00;100202.64;1560966;89;21532;-73
2021/11/19 06:07:33;;;;;;;43.87;24.77;;;;;;;0.02;100.00;100200.56;1585641;90;21086;-72
2021/11/19 06:10:02;;;;;;;44.50;24.30;;;;;;;0.02;100.00;100193.03;1585932;90;21030;-73
2021/11/19 06:12:41;;;;;;;44.67;23.53;;;;;;;0.01;100.00;100196.67;1509604;94;21120;-72
2021/11/19 06:15:13;;;;;;;42.23;23.70;;;;;;;-0.02;100.00;100194.59;1540323;93;21163;-72
2021/11/19 06:17:43;;;;;;;42.88;21.80;;;;;;;-0.03;100.00;100187.55;1492111;96;21188;-73
2021/11/19 06:20:18;;;;;;;47.30;23.77;;;;;;;-0.01;100.00;100182.98;1489810;96;21141;-73
2021/11/19 06:22:52;;;;;;;41.53;21.53;;;;;;;0.00;100.00;100187.84;1492083;96;21639;-71
2021/11/19 06:25:24;;;;;;;41.70;23.18;;;;;;;0.03;100.00;100182.79;1448546;99;21182;-72
2021/11/19 06:27:52;;;;;;;37.63;21.57;;;;;;;0.06;100.00;100178.61;1448131;98;21125;-72
2021/11/19 06:30:21;;;;;;;43.87;21.73;;;;;;;0.07;100.00;100182.50;1448341;99;21173;-73
2021/11/19 06:32:48;;;;;;;38.73;20.87;;;;;;;0.10;100.00;100178.77;1448290;99;21765;-70
2021/11/19 06:35:15;;;;;;;40.37;22.37;;;;;;;0.09;100.00;100179.27;1448113;98;21121;-71
2021/11/19 06:37:44;;;;;;;40.73;21.97;;;;;;;0.10;100.00;100179.63;1448183;98;21644;-74
2021/11/19 06:40:21;;;;;;;43.70;22.70;;;;;;;0.16;100.00;100180.56;1438021;99;21219;-73
2021/11/19 06:43:00;;;;;;;39.93;20.13;;;;;;;0.17;100.00;100184.06;1385681;104;21198;-72
2021/11/19 06:45:44;;;;;;;44.57;22.70;;;;;;;0.22;100.00;100187.77;1389423;103;21136;-73
2021/11/19 06:48:13;;;;;;;49.50;21.67;;;;;;;0.27;100.00;100198.47;1390809;103;21134;-72
2021/11/19 06:50:44;;;;;;;43.00;21.90;;;;;;;0.37;100.00;100188.93;1402649;101;21184;-72
2021/11/19 06:53:18;;;;;;;44.27;23.60;;;;;;;0.49;100.00;100175.27;1372997;103;21128;-72
2021/11/19 06:56:02;;;;;;;43.50;22.30;;;;;;;0.59;100.00;100174.67;1373818;104;21190;-71
2021/11/19 06:58:31;;;;;;;44.80;20.73;;;;;;;0.67;100.00;100186.95;1378770;103;21185;-73
2021/11/19 07:01:00;;;;;;;45.83;23.33;;;;;;;0.71;100.00;100183.99;1388644;103;21551;-72
2021/11/19 07:03:28;;;;;;;44.03;22.87;;;;;;;0.79;100.00;100193.27;1387281;103;21806;-73
2021/11/19 07:05:55;;;;;;;38.97;23.23;;;;;;;0.83;100.00;100192.09;1388656;103;21093;-73
2021/11/19 07:08:22;;;;;;;42.63;22.53;;;;;;;0.88;100.00;100184.16;1390418;102;21136;-73
2021/11/19 07:10:55;;;;;;;35.63;21.20;;;;;;;0.92;100.00;100183.00;1390359;103;21589;-75
2021/11/19 07:13:23;;;;;;;37.48;22.22;;;;;;;0.97;100.00;100177.34;1392336;103;21661;-73
2021/11/19 07:15:50;;;;;;;41.03;23.63;;;;;;;1.02;100.00;100176.55;1378817;103;21135;-73
2021/11/19 07:18:17;;;;;;;43.53;22.93;;;;;;;1.06;100.00;100171.41;1388565;103;21180;-76
2021/11/19 07:20:45;;;;;;;48.80;26.40;;;;;;;1.09;100.00;100172.98;1437552;97;21171;-72
2021/11/19 07:23:12;;;;;;;43.10;24.53;;;;;;;1.10;100.00;100172.87;1513380;93;21077;-73
2021/11/19 07:25:39;;;;;;;43.80;25.00;;;;;;;1.18;100.00;100180.81;1489977;94;21104;-72
2021/11/19 07:28:07;;;;;;;47.97;26.90;;;;;;;1.19;100.00;100179.37;1511117;94;21076;-74
2021/11/19 07:30:44;;;;;;;68.67;35.03;;;;;;;1.22;100.00;100172.97;1548540;90;21083;-75
2021/11/19 07:33:13;;;;;;;71.80;37.57;;;;;;;1.20;100.00;100172.23;1568208;91;21174;-73
2021/11/19 07:35:43;;;;;;;58.30;32.53;;;;;;;1.18;100.00;100179.48;1615549;89;21664;-75
2021/11/19 07:38:28;;;;;;;51.93;29.23;;;;;;;1.19;100.00;100178.50;1588900;90;21104;-72
2021/11/19 07:41:14;;;;;;;59.97;33.70;;;;;;;1.22;100.00;100181.84;1587057;89;21102;-73
2021/11/19 07:43:53;;;;;;;52.03;29.80;;;;;;;1.20;100.00;100173.08;1582240;90;21114;-73
2021/11/19 07:46:26;;;;;;;55.13;30.73;;;;;;;1.23;100.00;100172.02;1553706;92;21071;-73
2021/11/19 07:48:54;;;;;;;;;;;;;;;1.23;100.00;100167.54;1558685;90;21070;-72
2021/11/19 07:51:30;;;;;;;58.47;29.57;;;;;;;1.24;100.00;100169.25;1556823;90;20170;-72
2021/11/19 07:53:58;;;;;;;50.57;27.77;;;;;;;1.25;100.00;100172.77;1561155;92;21066;-71
2021/11/19 07:56:29;;;;;;;47.40;27.97;;;;;;;1.23;100.00;100175.53;1559642;90;21050;-74
2021/11/19 07:59:07;;;;;;;58.23;33.77;;;;;;;1.24;100.00;100174.58;1579992;90;21058;-73
2021/11/19 08:01:35;;;;;;;54.23;32.30;;;;;;;1.23;100.00;100168.87;1585726;89;21552;-73
2021/11/19 08:04:02;;;;;;;66.50;36.90;;;;;;;1.24;100.00;100163.05;1591567;89;21152;-72
2021/11/19 08:06:30;;;;;;;86.53;37.60;;;;;;;1.22;100.00;100152.99;1564676;91;21029;-71
2021/11/19 08:08:59;;;;;;;113.30;55.83;;;;;;;1.25;100.00;100152.30;1530556;93;21555;-72
2021/11/19 08:11:26;;;;;;;75.60;43.20;;;;;;;1.32;100.00;100147.39;1505692;94;21084;-73
2021/11/19 08:13:55;;;;;;;66.80;38.97;;;;;;;1.33;100.00;100152.61;1500232;95;21131;-72
2021/11/19 08:16:23;;;;;;;70.90;37.40;;;;;;;1.39;100.00;100147.32;1536447;91;21348;-73
2021/11/19 08:18:58;;;;;;;60.87;35.60;;;;;;;1.47;100.00;100142.30;1535277;92;21095;-72
2021/11/19 08:21:26;;;;;;;62.70;34.40;;;;;;;1.57;100.00;100138.97;1539220;92;21108;-73
2021/11/19 08:24:01;;;;;;;59.23;32.83;;;;;;;1.66;100.00;100134.30;1542721;91;21485;-72
2021/11/19 08:26:34;;;;;;;63.10;35.20;;;;;;;1.76;100.00;100125.16;1521838;93;21120;-73
2021/11/19 08:29:01;;;;;;;73.83;44.73;;;;;;;1.78;100.00;100118.73;1525048;92;21091;-73
2021/11/19 08:31:28;;;;;;;95.17;52.67;;;;;;;1.83;100.00;100113.08;1521623;94;21655;-72
2021/11/19 08:33:56;;;;;;;74.03;43.63;;;;;;;1.87;100.00;100117.21;1516850;94;21260;-72
2021/11/19 08:36:26;;;;;;;108.87;59.50;;;;;;;1.96;100.00;100117.86;1493221;94;21154;-72
2021/11/19 08:38:54;;;;;;;91.13;49.67;;;;;;;2.04;100.00;100120.81;1494046;94;21080;-73
2021/11/19 08:41:21;;;;;;;95.43;48.23;;;;;;;2.11;100.00;100120.34;1509799;94;21602;-73
2021/11/19 08:43:51;;;;;;;87.27;46.43;;;;;;;2.14;100.00;100112.96;1514164;94;21107;-73
2021/11/19 08:46:23;;;;;;;115.80;56.80;;;;;;;2.20;100.00;100108.52;1539390;87;21634;-73
2021/11/19 08:48:50;;;;;;;93.37;54.63;;;;;;;2.24;100.00;100108.64;1624423;87;21005;-73
2021/11/19 08:51:22;;;;;;;86.47;48.00;;;;;;;2.36;100.00;100108.70;1619797;87;21041;-73
2021/11/19 08:53:51;;;;;;;89.20;49.87;;;;;;;2.44;100.00;100103.14;1618760;87;21013;-74
2021/11/19 08:56:19;;;;;;;112.43;58.07;;;;;;;2.54;100.00;100107.77;1612995;88;21025;-72
2021/11/19 08:58:47;;;;;;;99.27;53.30;;;;;;;2.63;100.00;100098.55;1636762;87;21064;-73
2021/11/19 09:01:16;;;;;;;117.57;60.53;;;;;;;2.74;100.00;100097.71;1672956;85;21073;-73
2021/11/19 09:03:43;;;;;;;127.17;67.23;;;;;;;2.83;100.00;100092.14;1659689;85;21104;-73
2021/11/19 09:06:13;;;;;;;104.70;58.53;;;;;;;2.91;100.00;100089.73;1673173;85;21554;-73
2021/11/19 09:08:40;;;;;;;103.40;54.07;;;;;;;2.94;100.00;100084.62;1673962;85;21055;-73
2021/11/19 09:11:09;;;;;;;87.80;46.50;;;;;;;2.93;100.00;100077.09;1670867;84;21112;-73
2021/11/19 09:13:37;;;;;;;86.93;45.40;;;;;;;2.91;100.00;100077.71;1671915;85;20988;-73
2021/11/19 09:16:07;;;;;;;112.17;52.53;;;;;;;2.84;100.00;100076.00;1657425;84;21585;-74
2021/11/19 09:19:03;;;;;;;88.20;42.40;;;;;;;2.83;100.00;100074.78;1653350;86;21462;-72
2021/11/19 09:21:59;;;;;;;100.57;49.57;;;;;;;2.89;100.00;100075.66;1651429;85;21029;-73
2021/11/19 09:24:29;;;;;;;106.00;48.07;;;;;;;2.87;100.00;100066.05;1652885;85;21040;-73
2021/11/19 09:27:02;;;;;;;84.90;42.00;;;;;;;2.93;100.00;100058.89;1662283;85;21125;-74
2021/11/19 09:29:40;;;;;;;108.72;50.05;;;;;;;2.99;100.00;100060.60;1682772;83;21489;-75
2021/11/19 09:32:07;;;;;;;94.13;47.47;;;;;;;3.10;100.00;100054.41;1654640;83;21030;-74
2021/11/19 09:34:38;;;;;;;84.47;44.67;;;;;;;3.21;100.00;100050.37;1705170;83;21021;-74
2021/11/19 09:37:06;;;;;;;91.47;46.73;;;;;;;3.39;100.00;100044.02;1704667;83;21006;-76
2021/11/19 09:39:38;;;;;;;83.17;42.00;;;;;;;3.52;100.00;100042.52;1681611;83;21078;-74
2021/11/19 09:42:53;;;;;;;102.50;52.53;;;;;;;3.65;100.00;100026.34;1708557;83;21030;-74
2021/11/19 09:45:34;;;;;;;85.70;44.20;;;;;;;3.76;100.00;100024.95;1699218;83;21001;-76
2021/11/19 09:48:45;;;;;;;70.40;38.57;;;;;;;3.86;100.00;100022.84;1655273;86;21113;-74
2021/11/19 09:51:45;;;;;;;70.73;35.43;;;;;;;3.91;100.00;100025.98;1599666;88;21060;-75
2021/11/19 09:54:53;;;;;;;72.20;35.90;;;;;;;3.88;100.00;100016.40;1603643;88;21072;-75
2021/11/19 10:20:23;;;;;;;57.40;35.33;;;;;;;3.57;100.00;100001.55;1830877;77;23479;-69
2021/11/19 10:22:59;;;;;;;58.63;36.33;;;;;;;3.56;100.00;100004.34;1790638;80;21002;-70
2021/11/19 10:25:36;;;;;;;54.07;31.57;;;;;;;3.56;100.00;100001.20;1744178;81;21033;-70
2021/11/19 10:28:11;;;;;;;49.50;29.43;;;;;;;3.54;100.00;99996.48;1729721;81;21069;-70
2021/11/19 10:30:48;;;;;;;46.83;27.67;;;;;;;3.53;100.00;99999.28;1711226;83;21034;-69
2021/11/19 10:33:34;;;;;;;49.67;28.33;;;;;;;3.44;100.00;99998.21;1703655;83;21105;-70
2021/11/19 10:36:28;;;;;;;55.57;29.83;;;;;;;3.38;100.00;99992.02;1696442;83;20989;-69
2021/11/19 10:39:33;;;;;;;46.73;27.90;;;;;;;3.30;100.00;99992.66;1698168;83;21037;-69
2021/11/19 10:42:13;;;;;;;;;;;;;;;3.23;100.00;99994.13;1706856;83;21118;-68
2021/11/19 10:45:26;;;;;;;42.20;23.03;;;;;;;3.07;100.00;99989.19;1602491;89;20174;-69
2021/11/19 10:48:28;;;;;;;40.80;24.00;;;;;;;2.90;100.00;100003.88;1603195;89;21058;-72
2021/11/19 10:51:37;;;;;;;40.67;24.70;;;;;;;2.81;100.00;99989.94;1602939;88;21650;-71
2021/11/19 10:54:51;;;;;;;49.93;29.93;;;;;;;2.83;100.00;99990.20;1600206;89;21079;-73
2021/11/19 10:57:44;;;;;;;41.73;23.92;;;;;;;2.83;100.00;99976.84;1604512;86;21054;-71
2021/11/19 11:00:25;;;;;;;44.48;26.48;;;;;;;2.83;100.00;99979.98;1556029;91;21564;-72
2021/11/19 11:02:55;;;;;;;52.47;31.60;;;;;;;2.85;100.00;99982.91;1586987;90;21213;-73
2021/11/19 11:05:33;;;;;;;51.00;27.80;;;;;;;2.83;100.00;99985.31;1585541;90;21143;-71
2021/11/19 11:08:15;;;;;;;53.87;31.33;;;;;;;2.77;100.00;99981.81;1588438;90;21172;-72
2021/11/19 11:11:04;;;;;;;61.33;34.63;;;;;;;2.63;100.00;99975.74;1587945;89;21046;-76
2021/11/19 11:13:43;;;;;;;57.67;29.47;;;;;;;2.57;100.00;99972.73;1583806;90;21102;-72
2021/11/19 11:16:24;;;;;;;48.27;29.37;;;;;;;2.64;100.00;99973.45;1588541;90;21073;-73
2021/11/19 11:19:02;;;;;;;50.90;28.23;;;;;;;2.72;100.00;99968.82;1586290;89;21089;-73
2021/11/19 11:21:41;;;;;;;43.77;24.47;;;;;;;2.78;100.00;99964.34;1592175;88;21129;-75
2021/11/19 11:24:29;;;;;;;49.53;26.33;;;;;;;2.74;100.00;99958.02;1657936;86;21545;-75
2021/11/19 11:27:17;;;;;;;49.70;26.87;;;;;;;2.66;100.00;99958.64;1508872;93;21163;-75
2021/11/19 11:30:10;;;;;;;44.20;25.20;;;;;;;2.62;100.00;99953.16;1497534;95;21620;-74
2021/11/19 11:33:01;;;;;;;42.27;22.85;;;;;;;2.65;100.00;99948.92;1511637;92;21189;-77
2021/11/19 11:35:51;;;;;;;36.63;21.00;;;;;;;2.67;100.00;99942.97;1505316;95;21085;-75
2021/11/19 11:38:26;;;;;;;57.60;30.93;;;;;;;2.64;100.00;99940.08;1488514;96;21629;-76
2021/11/19 11:41:20;;;;;;;58.50;29.70;;;;;;;2.63;100.00;99940.20;1488651;96;21580;-75
2021/11/19 11:43:59;;;;;;;35.87;19.97;;;;;;;2.55;100.00;99947.95;1483733;96;21151;-75
2021/11/19 11:46:37;;;;;;;39.13;21.20;;;;;;;2.54;100.00;99936.44;1486271;95;21194;-76
2021/11/19 11:49:27;;;;;;;35.40;20.50;;;;;;;2.54;100.00;99935.59;1486542;96;21535;-73
2021/11/19 11:52:35;;;;;;;32.10;19.37;;;;;;;2.49;100.00;99935.11;1486182;97;21117;-73
2021/11/19 11:55:32;;;;;;;38.70;21.53;;;;;;;2.46;100.00;99933.05;1486157;97;21087;-75
2021/11/19 11:58:31;;;;;;;34.93;20.90;;;;;;;2.43;100.00;99934.63;1465218;98;21077;-74
2021/11/19 12:01:21;;;;;;;37.27;21.90;;;;;;;2.36;100.00;99933.91;1453384;99;21728;-75